NOZ3613 LPPR-EKCH
Flight info
| Callsign | NOZ3613 |
|---|---|
| Flight time | N/A |
| Altitude | 24000 |
| Route | TURON P600 ASDEB/N0460F340 DCT LOTEE DCT AZFIC DCT ERIGA DCT GODIX/N0458F360 DCT PODEM UN873 BAZOS DCT BELDI/N0458F350 DCT VICOT DCT DOSUR DCT TALSA P729 TUDLO |
| Aircraft | B738/M-SDE2E3FGHIRWXY/LB1 |
Departure
| Time | N/A |
|---|---|
| Airport | Francisco de Sá Carneiro Airport (LPPR) |
Arrival
| Time | 2026-04-25 20:40 |
|---|---|
| Airport | Copenhagen Kastrup Airport (EKCH) |
| Time | Latitude | Longitude | Altitude | Speed | Heading |
|---|---|---|---|---|---|
| 2026-04-25 19:38 | 51.54441 | 4.13319 | 36212 ft | 464 kts | 39° |
| 2026-04-25 19:38 | 51.56274 | 4.15898 | 36211 ft | 463 kts | 39° |
| 2026-04-25 19:39 | 51.61722 | 4.23559 | 36219 ft | 463 kts | 39° |
| 2026-04-25 19:39 | 51.66568 | 4.30295 | 36223 ft | 462 kts | 39° |
| 2026-04-25 19:40 | 51.71447 | 4.37045 | 36220 ft | 462 kts | 39° |
| 2026-04-25 19:40 | 51.76327 | 4.43802 | 36218 ft | 462 kts | 39° |
| 2026-04-25 19:41 | 51.81202 | 4.50573 | 36212 ft | 461 kts | 39° |
| 2026-04-25 19:41 | 51.85238 | 4.56197 | 36216 ft | 461 kts | 39° |
| 2026-04-25 19:42 | 51.90910 | 4.64126 | 36212 ft | 461 kts | 39° |
| 2026-04-25 19:42 | 51.95443 | 4.70482 | 36218 ft | 460 kts | 39° |
| 2026-04-25 19:43 | 51.99495 | 4.76178 | 36216 ft | 460 kts | 39° |
| 2026-04-25 19:43 | 52.04290 | 4.82937 | 36216 ft | 459 kts | 39° |
| 2026-04-25 19:44 | 52.09107 | 4.89748 | 36219 ft | 458 kts | 39° |
| 2026-04-25 19:44 | 52.13912 | 4.96562 | 36215 ft | 458 kts | 39° |
| 2026-04-25 19:45 | 52.18709 | 5.03383 | 36217 ft | 457 kts | 39° |
| 2026-04-25 19:45 | 52.23486 | 5.10198 | 36217 ft | 456 kts | 39° |
| 2026-04-25 19:46 | 52.28267 | 5.17039 | 36218 ft | 456 kts | 39° |
| 2026-04-25 19:46 | 52.33039 | 5.23888 | 36214 ft | 455 kts | 39° |
| 2026-04-25 19:47 | 52.37756 | 5.30677 | 36213 ft | 454 kts | 39° |
| 2026-04-25 19:47 | 52.42450 | 5.37452 | 36217 ft | 453 kts | 39° |
| 2026-04-25 19:48 | 52.47179 | 5.44299 | 36216 ft | 453 kts | 39° |
| 2026-04-25 19:48 | 52.51886 | 5.51176 | 36209 ft | 453 kts | 40° |
| 2026-04-25 19:49 | 52.54882 | 5.56020 | 36212 ft | 453 kts | 43° |
| 2026-04-25 19:49 | 52.60679 | 5.65987 | 36215 ft | 453 kts | 43° |
| 2026-04-25 19:50 | 52.67204 | 5.77172 | 36213 ft | 452 kts | 43° |
| 2026-04-25 19:51 | 52.71556 | 5.84579 | 36214 ft | 452 kts | 43° |
| 2026-04-25 19:51 | 52.75930 | 5.92028 | 36214 ft | 452 kts | 43° |
| 2026-04-25 19:52 | 52.80300 | 5.99495 | 36213 ft | 452 kts | 43° |
| 2026-04-25 19:52 | 52.84667 | 6.06977 | 36206 ft | 451 kts | 43° |
| 2026-04-25 19:53 | 52.89024 | 6.14469 | 36208 ft | 451 kts | 43° |
| 2026-04-25 19:53 | 52.93371 | 6.21968 | 36209 ft | 451 kts | 43° |
| 2026-04-25 19:54 | 52.97716 | 6.29487 | 36208 ft | 451 kts | 43° |
| 2026-04-25 19:54 | 53.02054 | 6.37018 | 36210 ft | 451 kts | 43° |
| 2026-04-25 19:55 | 53.06356 | 6.44512 | 36212 ft | 450 kts | 43° |
| 2026-04-25 19:55 | 53.10676 | 6.52058 | 36213 ft | 450 kts | 43° |
| 2026-04-25 19:56 | 53.14989 | 6.59615 | 36214 ft | 449 kts | 43° |
| 2026-04-25 19:56 | 53.19287 | 6.67171 | 36213 ft | 448 kts | 43° |
| 2026-04-25 19:57 | 53.23571 | 6.74726 | 36210 ft | 448 kts | 43° |
| 2026-04-25 19:57 | 53.27839 | 6.82275 | 36207 ft | 448 kts | 43° |
| 2026-04-25 19:57 | 53.29980 | 6.86069 | 36330 ft | 449 kts | 43° |
| 2026-04-25 19:58 | 53.32086 | 6.89809 | 36556 ft | 447 kts | 43° |
| 2026-04-25 19:58 | 53.34218 | 6.93602 | 36834 ft | 445 kts | 43° |
| 2026-04-25 19:58 | 53.36327 | 6.97361 | 37103 ft | 443 kts | 43° |
| 2026-04-25 19:59 | 53.40566 | 7.04926 | 37190 ft | 446 kts | 43° |
| 2026-04-25 19:59 | 53.44811 | 7.12528 | 37179 ft | 445 kts | 43° |
| 2026-04-25 20:00 | 53.49023 | 7.20099 | 37186 ft | 443 kts | 43° |
| 2026-04-25 20:00 | 53.53218 | 7.27659 | 37184 ft | 441 kts | 43° |
| 2026-04-25 20:01 | 53.59480 | 7.38988 | 37187 ft | 440 kts | 43° |
| 2026-04-25 20:01 | 53.63636 | 7.46536 | 37187 ft | 439 kts | 43° |
| 2026-04-25 20:02 | 53.67788 | 7.54100 | 37188 ft | 439 kts | 42° |
| 2026-04-25 20:02 | 53.71929 | 7.61668 | 37190 ft | 439 kts | 42° |
| 2026-04-25 20:03 | 53.76073 | 7.69264 | 37191 ft | 439 kts | 42° |
| 2026-04-25 20:03 | 53.80208 | 7.76870 | 37191 ft | 439 kts | 42° |
| 2026-04-25 20:04 | 53.84312 | 7.84441 | 37185 ft | 439 kts | 42° |
| 2026-04-25 20:04 | 53.88433 | 7.92068 | 37185 ft | 439 kts | 42° |
| 2026-04-25 20:05 | 53.92550 | 7.99712 | 37182 ft | 439 kts | 42° |
| 2026-04-25 20:05 | 53.96662 | 8.07370 | 37178 ft | 438 kts | 42° |
| 2026-04-25 20:06 | 54.00761 | 8.15029 | 37175 ft | 437 kts | 41° |
| 2026-04-25 20:06 | 54.04847 | 8.22687 | 37169 ft | 437 kts | 41° |
| 2026-04-25 20:07 | 54.08931 | 8.30365 | 37152 ft | 436 kts | 41° |
| 2026-04-25 20:07 | 54.12995 | 8.38030 | 37143 ft | 435 kts | 41° |
| 2026-04-25 20:08 | 54.17043 | 8.45689 | 37133 ft | 434 kts | 41° |
| 2026-04-25 20:08 | 54.21075 | 8.53342 | 37132 ft | 433 kts | 41° |
| 2026-04-25 20:09 | 54.25100 | 8.61005 | 37136 ft | 432 kts | 41° |
| 2026-04-25 20:09 | 54.29080 | 8.68606 | 37132 ft | 431 kts | 41° |
| 2026-04-25 20:10 | 54.33073 | 8.76258 | 37127 ft | 431 kts | 41° |
| 2026-04-25 20:10 | 54.37062 | 8.83924 | 37125 ft | 430 kts | 41° |
| 2026-04-25 20:11 | 54.41046 | 8.91606 | 37123 ft | 429 kts | 40° |
| 2026-04-25 20:11 | 54.45011 | 8.99274 | 37117 ft | 429 kts | 40° |
| 2026-04-25 20:12 | 54.48294 | 9.05643 | 37111 ft | 428 kts | 40° |
| 2026-04-25 20:12 | 54.51580 | 9.12034 | 37107 ft | 428 kts | 40° |
| 2026-04-25 20:13 | 54.56157 | 9.20965 | 37114 ft | 428 kts | 40° |
| 2026-04-25 20:13 | 54.60115 | 9.28713 | 37107 ft | 427 kts | 40° |
| 2026-04-25 20:14 | 54.64039 | 9.36420 | 37104 ft | 427 kts | 40° |
| 2026-04-25 20:14 | 54.67928 | 9.44082 | 37105 ft | 427 kts | 40° |
| 2026-04-25 20:15 | 54.71834 | 9.51802 | 37097 ft | 427 kts | 40° |
| 2026-04-25 20:15 | 54.75736 | 9.59540 | 37086 ft | 427 kts | 40° |
| 2026-04-25 20:16 | 54.79637 | 9.67299 | 37086 ft | 427 kts | 40° |
| 2026-04-25 20:16 | 54.83536 | 9.75077 | 36867 ft | 430 kts | 40° |
| 2026-04-25 20:17 | 54.85504 | 9.79007 | 36370 ft | 431 kts | 40° |
| 2026-04-25 20:17 | 54.87465 | 9.82940 | 35763 ft | 430 kts | 39° |
| 2026-04-25 20:17 | 54.89423 | 9.86872 | 35136 ft | 430 kts | 39° |
| 2026-04-25 20:17 | 54.91384 | 9.90816 | 34499 ft | 430 kts | 39° |
| 2026-04-25 20:18 | 54.93336 | 9.94746 | 33805 ft | 431 kts | 39° |
| 2026-04-25 20:18 | 54.95301 | 9.98708 | 33067 ft | 432 kts | 39° |
| 2026-04-25 20:18 | 54.97261 | 10.02667 | 32352 ft | 432 kts | 39° |
| 2026-04-25 20:18 | 54.99223 | 10.06636 | 31631 ft | 433 kts | 39° |
| 2026-04-25 20:19 | 55.01185 | 10.10611 | 30909 ft | 434 kts | 39° |
| 2026-04-25 20:19 | 55.03162 | 10.14622 | 30166 ft | 436 kts | 39° |
| 2026-04-25 20:19 | 55.05138 | 10.18640 | 29280 ft | 438 kts | 39° |
| 2026-04-25 20:19 | 55.07126 | 10.22687 | 28418 ft | 439 kts | 39° |
| 2026-04-25 20:20 | 55.09107 | 10.26730 | 27559 ft | 440 kts | 39° |
| 2026-04-25 20:20 | 55.11075 | 10.30870 | 26703 ft | 447 kts | 44° |
| 2026-04-25 20:20 | 55.12703 | 10.35491 | 26527 ft | 447 kts | 52° |
| 2026-04-25 20:20 | 55.14061 | 10.40363 | 26289 ft | 457 kts | 53° |
| 2026-04-25 20:21 | 55.15442 | 10.45452 | 26056 ft | 467 kts | 54° |
| 2026-04-25 20:21 | 55.16825 | 10.50604 | 25810 ft | 468 kts | 54° |
| 2026-04-25 20:21 | 55.18193 | 10.55726 | 25322 ft | 462 kts | 54° |
| 2026-04-25 20:21 | 55.19553 | 10.60796 | 24729 ft | 457 kts | 53° |
| 2026-04-25 20:22 | 55.20901 | 10.65792 | 24129 ft | 452 kts | 53° |
| 2026-04-25 20:22 | 55.21792 | 10.69079 | 23701 ft | 450 kts | 53° |
| 2026-04-25 20:22 | 55.23583 | 10.75666 | 22759 ft | 445 kts | 52° |
| 2026-04-25 20:22 | 55.24906 | 10.80536 | 22118 ft | 439 kts | 52° |
| 2026-04-25 20:23 | 55.26212 | 10.85354 | 21504 ft | 434 kts | 52° |
| 2026-04-25 20:23 | 55.27499 | 10.90114 | 20910 ft | 429 kts | 52° |
| 2026-04-25 20:23 | 55.28771 | 10.94823 | 20308 ft | 425 kts | 52° |
| 2026-04-25 20:23 | 55.30028 | 10.99488 | 19717 ft | 420 kts | 51° |
| 2026-04-25 20:24 | 55.31270 | 11.04108 | 19141 ft | 416 kts | 51° |
| 2026-04-25 20:24 | 55.32500 | 11.08686 | 18533 ft | 413 kts | 51° |
| 2026-04-25 20:24 | 55.33718 | 11.13230 | 17878 ft | 410 kts | 51° |
| 2026-04-25 20:24 | 55.34912 | 11.17694 | 17254 ft | 405 kts | 52° |
| 2026-04-25 20:25 | 55.36101 | 11.22155 | 16680 ft | 401 kts | 52° |
| 2026-04-25 20:25 | 55.37275 | 11.26568 | 16170 ft | 395 kts | 52° |
| 2026-04-25 20:25 | 55.38424 | 11.30902 | 15652 ft | 390 kts | 52° |
| 2026-04-25 20:25 | 55.39569 | 11.35219 | 15104 ft | 386 kts | 52° |
| 2026-04-25 20:26 | 55.40699 | 11.39478 | 14570 ft | 383 kts | 53° |
| 2026-04-25 20:26 | 55.41820 | 11.43716 | 14022 ft | 380 kts | 53° |
| 2026-04-25 20:26 | 55.42931 | 11.47922 | 13443 ft | 377 kts | 54° |
| 2026-04-25 20:26 | 55.44032 | 11.52099 | 12857 ft | 374 kts | 55° |
| 2026-04-25 20:27 | 55.45121 | 11.56243 | 12337 ft | 369 kts | 56° |
| 2026-04-25 20:27 | 55.46189 | 11.60316 | 11818 ft | 365 kts | 56° |
| 2026-04-25 20:27 | 55.47233 | 11.64303 | 11299 ft | 361 kts | 57° |
| 2026-04-25 20:27 | 55.48285 | 11.68331 | 11054 ft | 350 kts | 57° |
| 2026-04-25 20:28 | 55.49277 | 11.72158 | 10887 ft | 338 kts | 59° |
| 2026-04-25 20:28 | 55.49844 | 11.76196 | 10711 ft | 344 kts | 81° |
| 2026-04-25 20:28 | 55.49506 | 11.80322 | 10591 ft | 347 kts | 104° |
| 2026-04-25 20:28 | 55.48309 | 11.83975 | 10514 ft | 344 kts | 127° |
| 2026-04-25 20:29 | 55.46656 | 11.86967 | 10405 ft | 337 kts | 133° |
| 2026-04-25 20:29 | 55.44988 | 11.89727 | 10301 ft | 320 kts | 134° |
| 2026-04-25 20:29 | 55.43391 | 11.92327 | 10094 ft | 309 kts | 135° |
| 2026-04-25 20:29 | 55.41813 | 11.94887 | 9802 ft | 307 kts | 135° |
| 2026-04-25 20:30 | 55.40253 | 11.97417 | 9556 ft | 303 kts | 135° |
| 2026-04-25 20:30 | 55.38705 | 11.99919 | 9274 ft | 300 kts | 135° |
| 2026-04-25 20:30 | 55.37174 | 12.02386 | 8851 ft | 297 kts | 135° |
| 2026-04-25 20:30 | 55.35650 | 12.04831 | 8384 ft | 296 kts | 135° |
| 2026-04-25 20:31 | 55.34132 | 12.07251 | 7962 ft | 293 kts | 134° |
| 2026-04-25 20:31 | 55.32622 | 12.09643 | 7555 ft | 290 kts | 135° |
| 2026-04-25 20:31 | 55.31123 | 12.11997 | 7151 ft | 288 kts | 134° |
| 2026-04-25 20:31 | 55.29633 | 12.14315 | 6736 ft | 285 kts | 134° |
| 2026-04-25 20:32 | 55.28148 | 12.16606 | 6349 ft | 283 kts | 135° |
| 2026-04-25 20:32 | 55.26672 | 12.18869 | 5917 ft | 281 kts | 135° |
| 2026-04-25 20:32 | 55.25329 | 12.21294 | 5433 ft | 273 kts | 114° |
| 2026-04-25 20:32 | 55.24893 | 12.24349 | 5071 ft | 252 kts | 76° |
| 2026-04-25 20:33 | 55.25569 | 12.27048 | 5071 ft | 239 kts | 40° |
| 2026-04-25 20:33 | 55.26937 | 12.28521 | 5046 ft | 229 kts | 18° |
| 2026-04-25 20:33 | 55.28438 | 12.29432 | 5022 ft | 226 kts | 15° |
| 2026-04-25 20:33 | 55.29114 | 12.29814 | 5015 ft | 225 kts | 15° |
| 2026-04-25 20:34 | 55.31115 | 12.30926 | 5023 ft | 226 kts | 15° |
| 2026-04-25 20:34 | 55.32617 | 12.31757 | 5024 ft | 228 kts | 15° |
| 2026-04-25 20:34 | 55.34134 | 12.32595 | 5028 ft | 229 kts | 15° |
| 2026-04-25 20:34 | 55.35666 | 12.33438 | 5025 ft | 230 kts | 15° |
| 2026-04-25 20:35 | 55.37193 | 12.34273 | 5027 ft | 230 kts | 15° |
| 2026-04-25 20:35 | 55.38722 | 12.35107 | 5028 ft | 230 kts | 15° |
| 2026-04-25 20:35 | 55.40229 | 12.35927 | 5032 ft | 229 kts | 15° |
| 2026-04-25 20:35 | 55.41747 | 12.36750 | 4980 ft | 226 kts | 15° |
| 2026-04-25 20:36 | 55.43241 | 12.37558 | 4735 ft | 225 kts | 15° |
| 2026-04-25 20:36 | 55.44719 | 12.38528 | 4361 ft | 231 kts | 28° |
| 2026-04-25 20:36 | 55.46008 | 12.40082 | 4310 ft | 218 kts | 32° |
| 2026-04-25 20:36 | 55.47178 | 12.41687 | 4116 ft | 210 kts | 35° |
| 2026-04-25 20:37 | 55.48278 | 12.43355 | 3762 ft | 208 kts | 37° |
| 2026-04-25 20:37 | 55.49361 | 12.45040 | 3385 ft | 207 kts | 36° |
| 2026-04-25 20:37 | 55.50432 | 12.46709 | 3033 ft | 205 kts | 36° |
| 2026-04-25 20:37 | 55.51491 | 12.48357 | 2598 ft | 200 kts | 36° |
| 2026-04-25 20:38 | 55.52533 | 12.49976 | 2133 ft | 195 kts | 35° |
| 2026-04-25 20:38 | 55.53503 | 12.51489 | 1881 ft | 180 kts | 34° |
| 2026-04-25 20:38 | 55.54438 | 12.52983 | 1391 ft | 175 kts | 33° |
| 2026-04-25 20:38 | 55.55341 | 12.54324 | 1089 ft | 166 kts | 34° |
| 2026-04-25 20:39 | 55.56170 | 12.55622 | 845 ft | 154 kts | 36° |
| 2026-04-25 20:39 | 55.56924 | 12.56794 | 701 ft | 147 kts | 34° |
| 2026-04-25 20:39 | 55.57691 | 12.57982 | 441 ft | 145 kts | 35° |
| 2026-04-25 20:39 | 55.57944 | 12.58381 | 370 ft | 143 kts | 36° |
| 2026-04-25 20:40 | 55.59153 | 12.60236 | 68 ft | 135 kts | 34° |
| 2026-04-25 20:40 | 55.59829 | 12.61277 | 22 ft | 116 kts | 41° |
| 2026-04-25 20:40 | 55.60320 | 12.62041 | 23 ft | 72 kts | 39° |
| 2026-04-25 20:40 | 55.60587 | 12.62442 | 28 ft | 28 kts | 40° |
| 2026-04-25 20:41 | 55.60693 | 12.62604 | 27 ft | 19 kts | 41° |
| 2026-04-25 20:41 | 55.60795 | 12.62748 | 25 ft | 18 kts | 30° |
| 2026-04-25 20:41 | 55.60905 | 12.62842 | 28 ft | 16 kts | 17° |
| 2026-04-25 20:41 | 55.61006 | 12.62887 | 23 ft | 13 kts | 4° |
| 2026-04-25 20:42 | 55.61095 | 12.62915 | 23 ft | 13 kts | 16° |
| 2026-04-25 20:42 | 55.61169 | 12.62991 | 24 ft | 12 kts | 51° |
| 2026-04-25 20:42 | 55.61230 | 12.63095 | 23 ft | 12 kts | 38° |
| 2026-04-25 20:42 | 55.61298 | 12.63181 | 23 ft | 12 kts | 40° |
| 2026-04-25 20:43 | 55.61359 | 12.63275 | 23 ft | 12 kts | 40° |
| 2026-04-25 20:43 | 55.61419 | 12.63366 | 23 ft | 11 kts | 41° |
| 2026-04-25 20:43 | 55.61478 | 12.63455 | 25 ft | 11 kts | 41° |
| 2026-04-25 20:43 | 55.61534 | 12.63542 | 23 ft | 11 kts | 41° |
| 2026-04-25 20:44 | 55.61589 | 12.63626 | 23 ft | 10 kts | 41° |
| 2026-04-25 20:44 | 55.61641 | 12.63709 | 27 ft | 10 kts | 42° |
| 2026-04-25 20:44 | 55.61692 | 12.63789 | 23 ft | 10 kts | 42° |
| 2026-04-25 20:44 | 55.61740 | 12.63864 | 27 ft | 9 kts | 40° |
| 2026-04-25 20:45 | 55.61790 | 12.63939 | 26 ft | 9 kts | 40° |
| 2026-04-25 20:45 | 55.61837 | 12.64012 | 23 ft | 9 kts | 41° |
| 2026-04-25 20:45 | 55.61886 | 12.64079 | 26 ft | 9 kts | 28° |
| 2026-04-25 20:45 | 55.61940 | 12.64127 | 24 ft | 9 kts | 26° |
| 2026-04-25 20:46 | 55.61993 | 12.64172 | 23 ft | 8 kts | 25° |
| 2026-04-25 20:46 | 55.62044 | 12.64212 | 23 ft | 8 kts | 23° |
| 2026-04-25 20:46 | 55.62095 | 12.64252 | 25 ft | 8 kts | 28° |
| 2026-04-25 20:46 | 55.62142 | 12.64297 | 23 ft | 8 kts | 28° |
| 2026-04-25 20:47 | 55.62192 | 12.64339 | 21 ft | 9 kts | 25° |
| 2026-04-25 20:47 | 55.62256 | 12.64337 | 22 ft | 10 kts | 317° |
| 2026-04-25 20:47 | 55.62301 | 12.64224 | 20 ft | 13 kts | 304° |
| 2026-04-25 20:47 | 55.62360 | 12.64074 | 20 ft | 16 kts | 305° |
| 2026-04-25 20:48 | 55.62419 | 12.63912 | 21 ft | 15 kts | 303° |
| 2026-04-25 20:48 | 55.62497 | 12.63792 | 22 ft | 15 kts | 335° |
| 2026-04-25 20:48 | 55.62596 | 12.63768 | 23 ft | 14 kts | 15° |
| 2026-04-25 20:48 | 55.62681 | 12.63846 | 23 ft | 14 kts | 34° |
| 2026-04-25 20:49 | 55.62758 | 12.63931 | 24 ft | 13 kts | 33° |
| 2026-04-25 20:49 | 55.62824 | 12.64034 | 23 ft | 13 kts | 60° |
| 2026-04-25 20:49 | 55.62859 | 12.64174 | 25 ft | 12 kts | 70° |
| 2026-04-25 20:49 | 55.62856 | 12.64254 | 23 ft | 3 kts | 100° |
| 2026-04-25 20:50 | 55.62855 | 12.64261 | 23 ft | 0 kts | 100° |